createdAt,value
2018-09-25T05:51:52.755Z,75.10
2018-09-25T05:54:26.104Z,76.50
2018-09-25T05:57:00.054Z,77.00
2018-09-25T05:59:33.244Z,77.40
2018-09-25T06:02:06.939Z,77.50
2018-09-25T06:04:40.196Z,77.10
2018-09-25T06:07:13.736Z,76.30
2018-09-25T06:09:47.425Z,75.60
2018-09-25T06:12:20.846Z,75.20
2018-09-25T06:14:54.150Z,74.80
2018-09-25T06:17:27.760Z,74.80
2018-09-25T06:20:01.029Z,75.00
2018-09-25T06:22:34.556Z,74.50
2018-09-25T06:25:07.991Z,73.40
2018-09-25T06:27:41.658Z,72.80
2018-09-25T06:30:15.038Z,72.20
2018-09-25T06:32:48.601Z,71.30
2018-09-25T06:35:22.032Z,70.50
2018-09-25T06:37:55.496Z,70.40
2018-09-25T06:40:28.902Z,70.20
2018-09-25T06:43:02.617Z,70.10
2018-09-25T06:45:35.835Z,69.50
2018-09-25T06:48:11.149Z,69.30
2018-09-25T06:50:44.466Z,69.00
2018-09-25T06:53:18.064Z,68.00
2018-09-25T06:55:51.658Z,67.70
2018-09-25T06:58:25.382Z,67.10
2018-09-25T07:00:58.703Z,66.40
2018-09-25T07:03:32.585Z,65.90
2018-09-25T07:06:06.157Z,65.40
2018-09-25T07:08:39.797Z,65.60
2018-09-25T07:11:13.069Z,66.20
2018-09-25T07:13:46.501Z,66.70
2018-09-25T07:16:19.858Z,66.70
2018-09-25T07:18:53.459Z,66.50
2018-09-25T07:21:26.873Z,66.40
2018-09-25T07:24:00.495Z,67.00
2018-09-25T07:26:33.808Z,67.10
2018-09-25T07:29:07.611Z,67.50
2018-09-25T07:31:41.076Z,66.80
2018-09-25T07:34:15.102Z,65.40
2018-09-25T07:36:48.502Z,63.70
2018-09-25T07:39:21.936Z,62.30
2018-09-25T07:41:55.385Z,61.20
2018-09-25T07:44:29.016Z,61.60
2018-09-25T07:47:02.384Z,61.90
2018-09-25T07:49:36.337Z,61.60
2018-09-25T07:52:09.762Z,62.70
2018-09-25T07:54:43.136Z,63.40
2018-09-25T07:57:16.933Z,63.90
2018-09-25T07:59:50.642Z,63.60
2018-09-25T08:02:23.992Z,64.00
2018-09-25T08:04:57.771Z,64.50
2018-09-25T08:07:31.177Z,64.30
2018-09-25T08:10:04.828Z,63.60
2018-09-25T08:12:38.094Z,62.30
2018-09-25T08:15:11.484Z,60.40
2018-09-25T08:17:44.702Z,59.10
2018-09-25T08:20:18.418Z,58.40
2018-09-25T08:22:51.737Z,58.00
2018-09-25T08:25:25.425Z,58.00
2018-09-25T08:27:58.814Z,57.40
2018-09-25T08:30:32.624Z,57.80
2018-09-25T08:33:05.924Z,56.90
2018-09-25T08:35:39.529Z,56.50
2018-09-25T08:38:12.894Z,56.50
2018-09-25T08:40:46.525Z,56.50
2018-09-25T08:43:20.003Z,56.70
2018-09-25T08:45:53.414Z,57.00
2018-09-25T08:48:26.799Z,57.30
2018-09-25T08:51:00.208Z,56.90
2018-09-25T08:53:33.525Z,56.70
2018-09-25T08:56:07.332Z,56.50
2018-09-25T08:58:41.403Z,56.60
2018-09-25T09:01:15.386Z,56.40
2018-09-25T09:03:49.011Z,56.60
2018-09-25T09:06:22.314Z,57.70
2018-09-25T09:08:56.158Z,59.30
2018-09-25T09:11:29.435Z,60.50
2018-09-25T09:14:03.068Z,60.50
2018-09-25T09:16:36.449Z,59.90
2018-09-25T09:19:10.059Z,59.80
2018-09-25T09:21:43.284Z,59.60
2018-09-25T09:24:16.874Z,58.80
2018-09-25T09:26:50.140Z,58.60
2018-09-25T09:29:23.750Z,59.10
2018-09-25T09:31:57.122Z,59.10
2018-09-25T09:34:30.785Z,58.20
2018-09-25T09:37:03.973Z,56.90
2018-09-25T09:39:37.566Z,55.60
2018-09-25T09:42:11.037Z,54.40
2018-09-25T09:44:44.708Z,54.20
2018-09-25T09:47:18.144Z,54.50
2018-09-25T09:49:51.771Z,54.40
2018-09-25T09:52:25.072Z,54.60
2018-09-25T09:54:58.505Z,54.40
2018-09-25T09:57:31.959Z,54.00
2018-09-25T10:00:05.773Z,53.90
2018-09-25T10:02:40.502Z,53.30
2018-09-25T10:05:14.548Z,52.90
2018-09-25T10:07:48.109Z,53.20
2018-09-25T10:10:21.719Z,54.30
2018-09-25T10:12:55.086Z,54.50
2018-09-25T10:15:28.602Z,54.40
2018-09-25T10:18:01.877Z,54.50
2018-09-25T10:20:35.525Z,54.20
2018-09-25T10:23:08.740Z,54.30
2018-09-25T10:25:42.254Z,54.90
2018-09-25T10:28:15.561Z,55.20
2018-09-25T10:30:48.896Z,54.60
2018-09-25T10:33:22.152Z,54.00
2018-09-25T10:35:55.851Z,53.10
2018-09-25T10:38:30.913Z,53.10
2018-09-25T10:41:10.557Z,53.20
2018-09-25T10:43:43.734Z,53.30
2018-09-25T10:46:24.838Z,53.10
2018-09-25T10:48:58.205Z,52.20
2018-09-25T10:51:31.652Z,52.30
2018-09-25T10:54:05.006Z,52.20
2018-09-25T10:56:38.495Z,51.80
2018-09-25T10:59:11.809Z,51.20
2018-09-25T11:01:45.412Z,50.90
2018-09-25T11:04:19.348Z,50.40
2018-09-25T11:06:52.940Z,49.80
2018-09-25T11:09:26.141Z,49.20
2018-09-25T11:11:59.732Z,47.90
2018-09-25T11:14:33.044Z,47.00
2018-09-25T11:17:06.300Z,46.90
2018-09-25T11:19:39.794Z,46.90
2018-09-25T11:22:13.417Z,46.90
2018-09-25T11:24:46.668Z,45.80
2018-09-25T11:27:20.635Z,45.00
2018-09-25T11:29:54.174Z,44.80
2018-09-25T11:32:27.833Z,44.80
2018-09-25T11:35:01.233Z,45.00
2018-09-25T11:37:35.055Z,44.80
2018-09-25T11:40:08.233Z,47.80
2018-09-25T11:42:42.032Z,69.70
2018-09-25T11:45:15.435Z,65.40
2018-09-25T11:47:48.856Z,67.20
2018-09-25T11:50:22.210Z,66.00
2018-09-25T11:52:55.750Z,48.20
2018-09-25T11:55:29.061Z,48.20
2018-09-25T11:58:02.444Z,47.20
2018-09-25T12:00:35.810Z,46.50
2018-09-25T12:03:09.322Z,46.50
2018-09-25T12:05:43.029Z,46.60
2018-09-25T12:08:16.628Z,46.40
2018-09-25T12:10:50.018Z,45.90
2018-09-25T12:13:23.690Z,45.40
2018-09-25T12:15:57.149Z,44.90
2018-09-25T12:18:30.845Z,44.50
2018-09-25T12:21:04.057Z,44.00
2018-09-25T12:23:37.714Z,44.10
2018-09-25T12:26:11.395Z,44.80
2018-09-25T12:28:44.936Z,45.30
2018-09-25T12:31:18.199Z,45.70
2018-09-25T12:33:51.803Z,45.40
2018-09-25T12:36:25.105Z,44.90
2018-09-25T12:38:59.301Z,44.40
2018-09-25T12:41:32.526Z,45.00
2018-09-25T12:44:06.361Z,44.50
2018-09-25T12:46:39.655Z,44.80
2018-09-25T12:49:12.958Z,45.20
2018-09-25T12:51:46.679Z,44.80
2018-09-25T12:54:20.607Z,44.60
2018-09-25T12:56:54.260Z,44.60
2018-09-25T12:59:27.777Z,44.10
2018-09-25T13:02:01.268Z,43.50
2018-09-25T13:04:34.972Z,43.20
2018-09-25T13:07:08.953Z,42.80
2018-09-25T13:09:42.928Z,43.30
2018-09-25T13:12:16.312Z,43.50
2018-09-25T13:14:49.841Z,43.90
2018-09-25T13:17:23.209Z,44.10
2018-09-25T13:19:56.797Z,44.40
2018-09-25T13:22:30.170Z,44.30
2018-09-25T13:25:03.894Z,43.90
2018-09-25T13:27:37.577Z,43.80
2018-09-25T13:30:11.009Z,43.80
2018-09-25T13:32:44.207Z,43.80
2018-09-25T13:35:18.013Z,44.00
2018-09-25T13:37:51.277Z,44.00
2018-09-25T13:40:24.930Z,44.10
2018-09-25T13:42:58.188Z,44.10
2018-09-25T13:45:38.121Z,43.90
2018-09-25T13:48:20.856Z,43.70
2018-09-25T13:50:54.762Z,43.70
2018-09-25T13:53:28.004Z,43.80
2018-09-25T13:56:01.322Z,43.40
2018-09-25T13:58:34.741Z,42.70
2018-09-25T14:01:09.480Z,42.90
2018-09-25T14:03:42.833Z,42.90
2018-09-25T14:06:16.432Z,42.90
2018-09-25T14:08:49.644Z,42.70
2018-09-25T14:11:23.027Z,42.50
2018-09-25T14:13:56.389Z,42.10
2018-09-25T14:16:30.193Z,42.00
2018-09-25T14:19:06.442Z,41.90
2018-09-25T14:24:13.935Z,41.40
2018-09-25T14:26:47.466Z,41.90
2018-09-25T14:29:20.844Z,41.80
2018-09-25T14:31:54.293Z,41.80
2018-09-25T14:34:28.070Z,41.70
2018-09-25T14:37:01.457Z,41.80
2018-09-25T14:39:34.777Z,41.80
2018-09-25T14:42:08.375Z,41.90
2018-09-25T14:44:42.154Z,42.10
2018-09-25T14:47:15.540Z,42.30
2018-09-25T14:49:49.068Z,42.50
2018-09-25T14:52:22.324Z,42.60
2018-09-25T14:54:57.161Z,42.90
2018-09-25T14:57:30.397Z,42.90
2018-09-25T15:00:03.976Z,42.90
2018-09-25T15:02:37.278Z,43.10
2018-09-25T15:05:10.838Z,43.20
2018-09-25T15:07:44.387Z,43.30
2018-09-25T15:10:17.957Z,43.30
2018-09-25T15:12:51.298Z,43.20
2018-09-25T15:15:25.100Z,43.10
2018-09-25T15:17:58.372Z,43.10
2018-09-25T15:20:32.101Z,43.30
2018-09-25T15:23:05.492Z,43.10
2018-09-25T15:25:39.416Z,43.00
2018-09-25T15:28:12.765Z,42.90
2018-09-25T15:30:46.227Z,43.20
2018-09-25T15:33:19.636Z,43.10
2018-09-25T15:35:53.349Z,43.70
2018-09-25T15:38:26.675Z,43.40
2018-09-25T15:42:10.155Z,43.30
2018-09-25T15:44:43.456Z,43.30
2018-09-25T15:47:16.948Z,43.70
2018-09-25T15:49:50.258Z,43.80
2018-09-25T15:52:24.107Z,43.80
2018-09-25T15:54:57.472Z,43.90
2018-09-25T15:57:31.213Z,43.90
2018-09-25T16:00:04.574Z,43.90
2018-09-25T16:02:38.402Z,43.90
2018-09-25T16:05:11.716Z,44.70
2018-09-25T16:07:45.400Z,43.90
2018-09-25T16:10:18.624Z,44.00
2018-09-25T16:12:52.080Z,44.10
2018-09-25T16:15:25.888Z,44.20
2018-09-25T16:17:59.507Z,44.30
2018-09-25T16:20:32.897Z,44.40
2018-09-25T16:23:06.613Z,44.50
2018-09-25T16:25:39.987Z,44.50
2018-09-25T16:28:13.589Z,44.70
2018-09-25T16:30:46.922Z,44.60
2018-09-25T16:33:20.455Z,44.70
2018-09-25T16:35:54.018Z,44.70
2018-09-25T16:38:27.807Z,44.80
2018-09-25T16:41:01.081Z,44.80
2018-09-25T16:49:46.697Z,43.50
2018-09-25T16:52:44.613Z,45.40
2018-09-25T16:55:44.067Z,45.60
2018-09-25T16:58:40.933Z,45.80
2018-09-25T17:01:37.342Z,46.00
2018-09-25T17:04:30.681Z,46.20
2018-09-25T17:07:04.372Z,46.30
2018-09-25T17:09:37.563Z,46.50
2018-09-25T17:12:10.873Z,47.20
2018-09-25T17:14:44.241Z,46.80
2018-09-25T17:17:18.150Z,46.90
2018-09-25T17:19:51.563Z,47.00
2018-09-25T17:22:25.469Z,47.10
2018-09-25T17:24:58.956Z,47.30
2018-09-25T17:27:32.402Z,47.30
2018-09-25T17:30:05.749Z,47.40
2018-09-25T17:32:39.215Z,47.70
2018-09-25T17:35:12.957Z,47.80
2018-09-25T17:37:49.117Z,48.10
2018-09-25T17:40:35.585Z,48.70
2018-09-25T17:43:28.695Z,48.30
2018-09-25T17:46:40.581Z,48.40
2018-09-25T17:49:14.123Z,48.50
2018-09-25T17:51:48.081Z,48.80
2018-09-25T17:54:21.464Z,48.80
2018-09-25T17:56:55.066Z,48.90
2018-09-25T17:59:28.471Z,49.10
2018-09-25T18:02:02.040Z,49.20
2018-09-25T18:04:36.106Z,49.20
2018-09-25T18:07:09.749Z,49.40
2018-09-25T18:09:43.211Z,49.50
2018-09-25T18:12:17.309Z,49.60
2018-09-25T18:14:50.687Z,49.60
2018-09-25T18:17:25.041Z,49.70
2018-09-25T18:19:58.730Z,49.90
2018-09-25T18:22:32.617Z,50.00
2018-09-25T18:25:06.116Z,50.10
2018-09-25T18:27:40.908Z,50.20
2018-09-25T18:30:14.471Z,50.30
2018-09-25T18:32:47.979Z,50.40
2018-09-25T18:35:21.326Z,50.60
2018-09-25T18:37:55.198Z,50.60
2018-09-25T18:40:28.622Z,50.70
2018-09-25T18:43:02.154Z,50.90
2018-09-25T18:45:35.537Z,51.00
2018-09-25T18:48:09.122Z,51.10
2018-09-25T18:50:42.632Z,51.20
2018-09-25T18:53:16.667Z,51.20
2018-09-25T18:55:50.047Z,51.30
2018-09-25T18:58:23.638Z,51.40
2018-09-25T19:00:56.831Z,51.50
2018-09-25T19:03:30.566Z,51.60
2018-09-25T19:06:04.172Z,51.70
2018-09-25T19:08:41.247Z,51.70
2018-09-25T19:11:14.624Z,51.80
2018-09-25T19:13:48.118Z,51.90
2018-09-25T19:16:21.428Z,52.00
2018-09-25T19:18:55.096Z,52.00
2018-09-25T19:21:28.824Z,52.10
2018-09-25T19:24:02.280Z,52.10
2018-09-25T19:26:35.854Z,52.20
2018-09-25T19:29:09.404Z,52.30
2018-09-25T19:31:42.809Z,52.40
2018-09-25T19:34:16.194Z,52.50
2018-09-25T19:36:49.853Z,52.60
2018-09-25T19:39:23.249Z,52.60
2018-09-25T19:41:56.665Z,52.70
2018-09-25T19:44:30.197Z,52.80
2018-09-25T19:47:03.969Z,52.90
2018-09-25T19:49:37.438Z,52.90
2018-09-25T19:52:10.951Z,53.00
2018-09-25T19:54:44.672Z,53.20
2018-09-25T19:57:17.950Z,53.20
2018-09-25T19:59:51.832Z,53.30
2018-09-25T20:02:25.172Z,53.30
2018-09-25T20:04:59.091Z,53.40
2018-09-25T20:07:32.486Z,53.50
2018-09-25T20:10:06.283Z,53.60
2018-09-25T20:12:40.424Z,53.60
2018-09-25T20:15:22.208Z,53.70
2018-09-25T20:17:55.704Z,53.90
2018-09-25T20:20:29.201Z,53.90
2018-09-25T20:23:03.431Z,53.90
2018-09-25T20:25:36.826Z,53.90
2018-09-25T20:28:10.286Z,54.00
2018-09-25T20:30:43.765Z,54.00
2018-09-25T20:33:17.246Z,54.10
2018-09-25T20:35:51.134Z,54.20
2018-09-25T20:38:24.616Z,54.30
2018-09-25T20:40:58.209Z,54.40
2018-09-25T20:43:31.382Z,54.50
2018-09-25T20:46:05.114Z,54.50
2018-09-25T20:48:38.417Z,54.70
2018-09-25T20:51:12.064Z,54.80
2018-09-25T20:53:46.657Z,54.90
2018-09-25T20:56:20.424Z,55.00
2018-09-25T20:58:53.993Z,55.00
2018-09-25T21:01:27.477Z,55.10
2018-09-25T21:04:01.026Z,55.20
2018-09-25T21:06:34.919Z,55.20
2018-09-25T21:09:08.675Z,55.30
2018-09-25T21:11:42.639Z,55.40
2018-09-25T21:14:16.220Z,55.40
2018-09-25T21:16:49.717Z,55.60
2018-09-25T21:19:23.767Z,55.60
2018-09-25T21:21:57.331Z,56.10
2018-09-25T21:24:31.194Z,55.70
2018-09-25T21:27:04.560Z,56.40
2018-09-25T21:29:38.396Z,55.90
2018-09-25T21:32:11.768Z,55.90
2018-09-25T21:34:45.165Z,56.00
2018-09-25T21:37:18.477Z,56.10
2018-09-25T21:39:52.118Z,56.10
2018-09-25T21:42:25.505Z,56.20
2018-09-25T21:44:58.898Z,56.20
2018-09-25T21:47:32.301Z,56.20
2018-09-25T21:50:06.642Z,56.40
2018-09-25T21:52:40.017Z,56.50
2018-09-25T21:55:13.854Z,56.60
2018-09-25T21:57:47.327Z,56.70
2018-09-25T22:00:20.665Z,57.30
2018-09-25T22:02:54.134Z,56.80
2018-09-25T22:05:27.610Z,57.30
2018-09-25T22:08:01.013Z,56.80
2018-09-25T22:10:34.822Z,56.80
2018-09-25T22:13:08.170Z,56.90
2018-09-25T22:15:42.175Z,57.10
2018-09-25T22:18:15.408Z,57.20
2018-09-25T22:20:48.681Z,57.20
2018-09-25T22:23:21.965Z,57.20
2018-09-25T22:25:56.088Z,57.30
2018-09-25T22:28:29.391Z,57.30
2018-09-25T22:31:02.928Z,57.50
2018-09-25T22:33:36.450Z,57.50
2018-09-25T22:36:09.862Z,57.60
2018-09-25T22:38:43.151Z,57.70
2018-09-25T22:41:16.541Z,57.80
2018-09-25T22:43:50.045Z,57.80
2018-09-25T22:46:23.934Z,57.90
2018-09-25T22:48:57.169Z,57.90
2018-09-25T22:51:30.634Z,58.50
2018-09-25T22:54:03.914Z,58.10
2018-09-25T22:56:37.436Z,58.10
2018-09-25T22:59:10.793Z,58.30
2018-09-25T23:01:44.431Z,58.30
2018-09-25T23:04:18.137Z,58.50
2018-09-25T23:06:51.554Z,58.60
2018-09-25T23:09:25.461Z,58.70
2018-09-25T23:11:58.909Z,58.70
2018-09-25T23:14:32.453Z,58.80
2018-09-25T23:17:06.140Z,59.00
2018-09-25T23:19:39.525Z,59.10
2018-09-25T23:22:13.144Z,59.20
2018-09-25T23:24:46.426Z,59.30
2018-09-25T23:27:20.300Z,59.30
2018-09-25T23:29:53.726Z,59.30
2018-09-25T23:32:27.261Z,59.30
2018-09-25T23:35:00.603Z,59.30
2018-09-25T23:37:34.366Z,59.40
2018-09-25T23:40:06.801Z,59.30
2018-09-25T23:42:40.116Z,59.40
2018-09-25T23:45:13.630Z,59.40
2018-09-25T23:47:49.005Z,59.50
2018-09-25T23:50:39.610Z,59.60
2018-09-25T23:53:13.880Z,59.70
2018-09-25T23:55:46.188Z,60.50
2018-09-25T23:58:21.500Z,59.90
